Nimbus Weather Services

Informe meteorológico para Carrasco, Uruguay. El informe se hizo hace 434300 horas y 18 minutos, a las 00:00 UTC. El viento soplaba a una velocidad de 5.1 m/s (11.5 millas por hora) del este-sureste (120°). La temperatura era 22 °C (72 °F), con un punto de rocío de 19 °C (66 °F). La sensación térmica era de 22 °C (71 °F). La presión atmosférica era 1015 hPa (29.97 inHg). Había una humedad relativa del 83.1%. Cielo: nubosidad discontinua a una altitud de 305 metros (1000 pies). En aquel momento la visibilidad global era mayor de 10 kilómetros (6.2 millas). Actualmente .

La clave METAR es: SUMU 060000Z 12010KT 9999 BKN010 22/19 Q1015 NOSIG=

Consulta realizada el Jueves 18 de Julio de 2019 17:17. Tiempo usado para generar esta pagina:4,756 ms.